createdAt,value
2018-12-04T00:00:55.534Z,99791.07
2018-12-04T00:03:24.459Z,99798.16
2018-12-04T00:05:30.589Z,99793.38
2018-12-04T00:07:37.462Z,99790.39
2018-12-04T00:09:43.557Z,99800.88
2018-12-04T00:11:50.220Z,99811.73
2018-12-04T00:13:56.349Z,99813.38
2018-12-04T00:16:03.687Z,99818.09
2018-12-04T00:18:11.224Z,99823.63
2018-12-04T00:20:17.518Z,99828.38
2018-12-04T00:22:24.442Z,99826.52
2018-12-04T00:24:30.807Z,99832.94
2018-12-04T00:26:37.166Z,99824.61
2018-12-04T00:28:43.238Z,99835.39
2018-12-04T00:30:49.347Z,99829.30
2018-12-04T00:33:03.191Z,99837.95
2018-12-04T00:35:10.620Z,99835.79
2018-12-04T00:37:17.637Z,99835.33
2018-12-04T00:39:24.373Z,99840.58
2018-12-04T00:41:30.517Z,99850.61
2018-12-04T00:43:36.620Z,99845.27
2018-12-04T00:45:42.934Z,99847.83
2018-12-04T00:47:49.295Z,99849.53
2018-12-04T00:49:55.580Z,99849.46
2018-12-04T00:52:01.653Z,99854.25
2018-12-04T00:54:08.374Z,99849.36
2018-12-04T00:56:14.430Z,99854.54
2018-12-04T00:58:20.589Z,99857.95
2018-12-04T01:00:26.978Z,99859.66
2018-12-04T01:02:33.634Z,99860.87
2018-12-04T01:04:39.799Z,99864.41
2018-12-04T01:06:46.174Z,99867.04
2018-12-04T01:08:52.462Z,99869.59
2018-12-04T01:10:58.921Z,99874.38
2018-12-04T01:13:05.294Z,99874.45
2018-12-04T01:15:11.498Z,99881.87
2018-12-04T01:17:18.056Z,99887.97
2018-12-04T01:19:24.270Z,99897.16
2018-12-04T01:21:30.398Z,99898.01
2018-12-04T01:23:37.046Z,99898.93
2018-12-04T01:25:43.216Z,99897.55
2018-12-04T01:27:49.366Z,99901.78
2018-12-04T01:29:55.638Z,99905.81
2018-12-04T01:32:05.592Z,99901.87
2018-12-04T01:34:12.470Z,99904.89
2018-12-04T01:36:18.690Z,99901.78
2018-12-04T01:38:47.593Z,99902.27
2018-12-04T01:41:19.155Z,99910.14
2018-12-04T01:43:25.323Z,99907.59
2018-12-04T01:45:31.596Z,99911.45
2018-12-04T01:47:37.833Z,99914.84
2018-12-04T01:49:44.079Z,99913.00
2018-12-04T01:51:50.162Z,99919.49
2018-12-04T01:53:56.326Z,99917.23
2018-12-04T01:56:03.619Z,99916.77
2018-12-04T01:58:09.742Z,99922.81
2018-12-04T02:00:16.030Z,99916.77
2018-12-04T02:02:22.280Z,99923.73
2018-12-04T02:04:29.946Z,99921.62
2018-12-04T02:06:37.100Z,99925.56
2018-12-04T02:08:49.598Z,99930.36
2018-12-04T02:10:56.603Z,99938.63
2018-12-04T02:13:03.580Z,99938.63
2018-12-04T02:15:10.047Z,99940.33
2018-12-04T02:19:32.730Z,99938.63
2018-12-04T02:21:39.937Z,99939.94
2018-12-04T02:23:47.378Z,99945.13
2018-12-04T02:25:53.622Z,99945.58
2018-12-04T02:27:59.914Z,99952.61
2018-12-04T02:30:06.122Z,99953.06
2018-12-04T02:32:12.374Z,99949.68
2018-12-04T02:34:19.186Z,99951.00
2018-12-04T02:36:25.246Z,99955.85
2018-12-04T02:38:31.284Z,99964.25
2018-12-04T02:40:37.372Z,99968.72
2018-12-04T02:42:43.408Z,99971.89
2018-12-04T02:44:50.473Z,99972.36
2018-12-04T02:46:56.574Z,99970.65
2018-12-04T02:49:02.859Z,99976.91
2018-12-04T02:51:08.981Z,99980.45
2018-12-04T02:53:15.068Z,99980.98
2018-12-04T02:55:21.124Z,99984.16
2018-12-04T02:57:27.197Z,99986.91
2018-12-04T02:59:33.334Z,99984.35
2018-12-04T03:01:39.498Z,99986.52
2018-12-04T03:03:46.251Z,99979.66
2018-12-04T03:05:52.526Z,99977.09
2018-12-04T03:07:58.909Z,99987.20
2018-12-04T03:10:27.391Z,99978.96
2018-12-04T03:12:56.289Z,99987.42
2018-12-04T03:15:03.441Z,99991.06
2018-12-04T03:17:09.613Z,99991.97
2018-12-04T03:19:15.656Z,99990.69
2018-12-04T03:21:21.776Z,99992.06
2018-12-04T03:23:27.846Z,100003.52
2018-12-04T03:25:34.395Z,100007.97
2018-12-04T03:27:40.574Z,100010.74
2018-12-04T03:29:47.041Z,100005.86
2018-12-04T03:31:53.330Z,100010.34
2018-12-04T03:33:59.824Z,100017.77
2018-12-04T03:36:06.132Z,100015.14
2018-12-04T03:38:13.329Z,100023.86
2018-12-04T03:40:19.706Z,100030.33
2018-12-04T03:42:25.845Z,100030.33
2018-12-04T03:44:31.954Z,100040.82
2018-12-04T03:46:38.002Z,100046.01
2018-12-04T03:48:44.159Z,100053.42
2018-12-04T03:50:50.379Z,100054.27
2018-12-04T03:52:57.282Z,100062.54
2018-12-04T03:55:04.144Z,100066.48
2018-12-04T03:57:10.280Z,100067.69
2018-12-04T03:59:16.462Z,100077.67
2018-12-04T04:01:24.557Z,100077.64
2018-12-04T04:03:30.709Z,100078.04
2018-12-04T04:05:36.898Z,100080.72
2018-12-04T04:07:43.326Z,100092.93
2018-12-04T04:09:50.090Z,100089.36
2018-12-04T04:11:56.375Z,100083.75
2018-12-04T04:14:02.605Z,100093.39
2018-12-04T04:16:08.689Z,100102.97
2018-12-04T04:18:14.830Z,100090.77
2018-12-04T04:20:20.910Z,100094.24
2018-12-04T04:22:27.074Z,100104.73
2018-12-04T04:24:33.218Z,100110.90
2018-12-04T04:26:39.724Z,100112.67
2018-12-04T04:28:46.435Z,100114.06
2018-12-04T04:30:52.494Z,100120.27
2018-12-04T04:32:58.610Z,100120.72
2018-12-04T04:35:06.898Z,100122.09
2018-12-04T04:37:12.971Z,100122.55
2018-12-04T04:39:19.737Z,100126.54
2018-12-04T04:41:25.823Z,100133.19
2018-12-04T04:43:31.955Z,100141.97
2018-12-04T04:45:38.049Z,100139.41
2018-12-04T04:47:44.183Z,100148.59
2018-12-04T04:49:50.408Z,100159.17
2018-12-04T04:51:56.720Z,100165.33
2018-12-04T04:54:04.876Z,100170.58
2018-12-04T04:56:11.029Z,100171.95
2018-12-04T04:58:17.142Z,100174.97
2018-12-04T05:00:47.030Z,100181.07
2018-12-04T05:03:16.285Z,100190.77
2018-12-04T05:05:22.620Z,100196.07
2018-12-04T05:07:28.742Z,100190.06
2018-12-04T05:09:35.059Z,100202.27
2018-12-04T05:11:41.333Z,100202.32
2018-12-04T05:13:47.625Z,100203.17
2018-12-04T05:15:53.710Z,100206.66
2018-12-04T05:17:59.895Z,100207.51
2018-12-04T05:20:08.542Z,100209.73
2018-12-04T05:22:14.721Z,100215.83
2018-12-04T05:24:43.717Z,100223.61
2018-12-04T05:27:12.024Z,100224.55
2018-12-04T05:29:18.306Z,100229.80
2018-12-04T05:31:24.754Z,100238.04
2018-12-04T05:33:30.854Z,100242.52
2018-12-04T05:35:37.115Z,100246.45
2018-12-04T05:37:43.173Z,100247.36
2018-12-04T05:39:49.269Z,100246.05
2018-12-04T05:41:55.451Z,100248.67
2018-12-04T05:44:01.932Z,100251.75
2018-12-04T05:46:08.208Z,100253.02
2018-12-04T05:48:14.300Z,100259.11
2018-12-04T05:50:20.384Z,100259.03
2018-12-04T05:52:26.786Z,100261.54
2018-12-04T05:54:32.969Z,100271.48
2018-12-04T05:56:39.279Z,100269.66
2018-12-04T05:58:45.546Z,100271.78
2018-12-04T06:03:11.752Z,100286.41
2018-12-04T06:05:17.908Z,100287.18
2018-12-04T06:07:24.738Z,100289.34
2018-12-04T06:09:31.470Z,100298.96
2018-12-04T06:11:38.000Z,100299.82
2018-12-04T06:13:44.321Z,100305.84
2018-12-04T06:15:50.472Z,100313.71
2018-12-04T06:17:56.909Z,100315.97
2018-12-04T06:20:03.214Z,100315.11
2018-12-04T06:22:09.559Z,100320.38
2018-12-04T06:24:38.154Z,100316.50
2018-12-04T06:27:07.019Z,100326.68
2018-12-04T06:29:13.181Z,100329.86
2018-12-04T06:31:19.265Z,100330.00
2018-12-04T06:33:25.352Z,100339.70
2018-12-04T06:37:49.074Z,100351.98
2018-12-04T06:39:55.518Z,100360.69
2018-12-04T06:42:01.787Z,100370.35
2018-12-04T06:44:07.891Z,100376.42
2018-12-04T06:46:14.427Z,100378.22
2018-12-04T06:48:20.590Z,100382.61
2018-12-04T06:50:26.806Z,100383.13
2018-12-04T06:52:33.391Z,100393.21
2018-12-04T06:54:39.521Z,100402.94
2018-12-04T06:56:47.486Z,100402.63
2018-12-04T06:58:54.455Z,100414.97
2018-12-04T07:01:01.316Z,100414.16
2018-12-04T07:03:07.531Z,100423.80
2018-12-04T07:05:13.776Z,100438.68
2018-12-04T07:07:20.168Z,100443.92
2018-12-04T07:09:26.389Z,100450.88
2018-12-04T07:11:33.162Z,100447.00
2018-12-04T07:13:39.516Z,100448.27
2018-12-04T07:15:45.809Z,100462.64
2018-12-04T07:17:52.158Z,100469.14
2018-12-04T07:19:58.834Z,100463.05
2018-12-04T07:22:05.095Z,100469.14
2018-12-04T07:24:33.968Z,100479.95
2018-12-04T07:27:03.161Z,100486.52
2018-12-04T07:29:09.542Z,100480.46
2018-12-04T07:31:16.508Z,100490.45
2018-12-04T07:33:22.736Z,100484.34
2018-12-04T07:35:28.963Z,100488.33
2018-12-04T07:37:35.260Z,100483.22
2018-12-04T07:39:41.414Z,100484.53
2018-12-04T07:41:47.471Z,100493.89
2018-12-04T07:43:53.593Z,100501.85
2018-12-04T07:45:59.841Z,100508.21
2018-12-04T07:48:06.362Z,100509.74
2018-12-04T07:50:12.488Z,100506.44
2018-12-04T07:52:18.633Z,100511.00
2018-12-04T07:54:24.878Z,100516.78
2018-12-04T07:56:31.034Z,100530.06
2018-12-04T07:58:37.223Z,100528.02
2018-12-04T08:00:43.386Z,100542.52
2018-12-04T08:02:49.683Z,100546.17
2018-12-04T08:04:55.869Z,100549.69
2018-12-04T08:07:02.159Z,100559.84
2018-12-04T08:09:09.699Z,100565.98
2018-12-04T08:11:15.736Z,100567.75
2018-12-04T08:13:22.090Z,100579.13
2018-12-04T08:15:28.277Z,100582.20
2018-12-04T08:17:34.754Z,100576.92
2018-12-04T08:19:41.004Z,100586.55
2018-12-04T08:21:47.816Z,100596.58
2018-12-04T08:24:16.810Z,100597.89
2018-12-04T08:26:44.977Z,100598.75
2018-12-04T08:28:51.316Z,100599.20
2018-12-04T08:30:57.487Z,100606.98
2018-12-04T08:33:04.098Z,100615.63
2018-12-04T08:35:11.502Z,100626.47
2018-12-04T08:37:17.589Z,100628.11
2018-12-04T08:39:45.779Z,100627.95
2018-12-04T08:42:14.269Z,100638.31
2018-12-04T08:44:20.618Z,100643.48
2018-12-04T08:46:27.557Z,100647.37
2018-12-04T08:48:33.757Z,100651.75
2018-12-04T08:50:39.892Z,100642.17
2018-12-04T08:52:46.024Z,100658.27
2018-12-04T08:54:52.137Z,100662.60
2018-12-04T08:56:58.239Z,100672.16
2018-12-04T08:59:04.420Z,100679.86
2018-12-04T09:01:10.640Z,100683.55
2018-12-04T09:03:19.088Z,100686.83
2018-12-04T09:05:26.199Z,100691.86
2018-12-04T09:07:32.529Z,100693.92
2018-12-04T09:09:38.864Z,100693.80
2018-12-04T09:11:44.923Z,100705.52
2018-12-04T09:13:51.063Z,100698.83
2018-12-04T09:15:57.403Z,100709.23
2018-12-04T09:18:03.667Z,100703.88
2018-12-04T09:20:09.936Z,100708.63
2018-12-04T09:22:16.288Z,100704.16
2018-12-04T09:24:23.483Z,100708.95
2018-12-04T09:26:29.746Z,100711.48
2018-12-04T09:28:36.140Z,100711.08
2018-12-04T09:30:42.829Z,100714.61
2018-12-04T09:32:49.119Z,100713.70
2018-12-04T09:34:55.375Z,100728.14
2018-12-04T09:37:01.608Z,100740.73
2018-12-04T09:39:30.256Z,100737.24
2018-12-04T09:41:59.327Z,100741.70
2018-12-04T09:44:05.554Z,100745.73
2018-12-04T09:46:12.126Z,100738.39
2018-12-04T09:48:18.293Z,100744.12
2018-12-04T09:50:24.530Z,100752.08
2018-12-04T09:52:31.035Z,100755.16
2018-12-04T09:54:37.106Z,100754.74
2018-12-04T09:56:43.347Z,100757.33
2018-12-04T09:58:49.466Z,100765.53
2018-12-04T10:01:18.602Z,100764.62
2018-12-04T10:03:47.647Z,100770.28
2018-12-04T10:05:53.823Z,100774.27
2018-12-04T10:08:00.022Z,100771.23
2018-12-04T10:10:07.951Z,100772.66
2018-12-04T10:12:14.378Z,100770.08
2018-12-04T10:14:21.281Z,100772.29
2018-12-04T10:16:27.476Z,100774.02
2018-12-04T10:18:33.842Z,100775.73
2018-12-04T10:20:40.113Z,100774.71
2018-12-04T10:22:46.590Z,100781.16
2018-12-04T10:24:52.729Z,100788.48
2018-12-04T10:26:59.265Z,100782.66
2018-12-04T10:29:05.637Z,100785.69
2018-12-04T10:31:12.118Z,100790.53
2018-12-04T10:33:18.711Z,100794.48
2018-12-04T10:35:25.851Z,100798.91
2018-12-04T10:37:34.422Z,100798.58
2018-12-04T10:39:40.699Z,100800.79
2018-12-04T10:41:47.088Z,100795.55
2018-12-04T10:43:53.994Z,100801.61
2018-12-04T10:46:00.678Z,100804.97
2018-12-04T10:48:06.883Z,100797.83
2018-12-04T10:50:13.435Z,100809.94
2018-12-04T10:52:19.610Z,100815.02
2018-12-04T10:54:26.018Z,100822.41
2018-12-04T10:56:32.098Z,100824.53
2018-12-04T10:58:38.238Z,100821.83
2018-12-04T11:00:49.592Z,100819.61
2018-12-04T11:03:22.125Z,100827.04
2018-12-04T11:05:51.242Z,100826.34
2018-12-04T11:07:57.596Z,100829.45
2018-12-04T11:10:04.245Z,100828.27
2018-12-04T11:12:12.494Z,100836.30
2018-12-04T11:14:18.828Z,100832.52
2018-12-04T11:16:24.950Z,100826.87
2018-12-04T11:18:31.367Z,100830.81
2018-12-04T11:20:37.521Z,100838.22
2018-12-04T11:22:43.817Z,100842.00
2018-12-04T11:24:49.950Z,100840.98
2018-12-04T11:26:56.175Z,100843.41
2018-12-04T11:29:25.013Z,100845.37
2018-12-04T11:31:54.452Z,100849.10
2018-12-04T11:34:01.298Z,100844.59
2018-12-04T11:36:07.493Z,100850.99
2018-12-04T11:38:14.698Z,100842.55
2018-12-04T11:40:21.495Z,100850.28
2018-12-04T11:42:27.751Z,100849.30
2018-12-04T11:44:33.964Z,100857.47
2018-12-04T11:46:40.245Z,100867.03
2018-12-04T11:48:46.308Z,100861.73
2018-12-04T11:50:53.373Z,100862.92
2018-12-04T11:53:00.084Z,100871.13
2018-12-04T11:55:06.675Z,100871.95
2018-12-04T11:57:12.841Z,100874.13
2018-12-04T11:59:19.085Z,100877.25
2018-12-04T12:01:30.654Z,100900.10
2018-12-04T12:03:37.494Z,100892.77
2018-12-04T12:05:43.843Z,100903.84
2018-12-04T12:07:52.032Z,100909.70
2018-12-04T12:09:59.156Z,100912.09
2018-12-04T12:12:06.055Z,100916.59
2018-12-04T12:14:12.202Z,100919.05
2018-12-04T12:16:18.609Z,100921.39
2018-12-04T12:18:24.814Z,100925.44
2018-12-04T12:20:31.560Z,100926.75
2018-12-04T12:22:38.023Z,100926.80
2018-12-04T12:25:18.655Z,100929.88
2018-12-04T12:27:48.003Z,100926.91
2018-12-04T12:29:54.655Z,100932.20
2018-12-04T12:32:01.460Z,100940.08
2018-12-04T12:34:07.753Z,100940.97
2018-12-04T12:36:14.143Z,100952.34
2018-12-04T12:38:20.696Z,100955.41
2018-12-04T12:40:26.864Z,100950.20
2018-12-04T12:42:33.019Z,100952.45
2018-12-04T12:44:39.603Z,100958.68
2018-12-04T12:46:45.727Z,100955.27
2018-12-04T12:48:52.007Z,100961.38
2018-12-04T12:50:58.235Z,100967.48
2018-12-04T12:53:05.170Z,100970.04
2018-12-04T12:55:11.713Z,100964.79
2018-12-04T12:57:18.697Z,100972.63
2018-12-04T12:59:24.787Z,100967.38
2018-12-04T13:01:31.004Z,100975.21
2018-12-04T13:03:37.122Z,100970.41
2018-12-04T13:05:43.233Z,100967.67
2018-12-04T13:07:49.722Z,100965.46
2018-12-04T13:09:56.008Z,100971.16
2018-12-04T13:12:02.250Z,100979.04
2018-12-04T13:14:08.578Z,100983.42
2018-12-04T13:16:14.719Z,100976.00
2018-12-04T13:18:20.835Z,100975.55
2018-12-04T13:20:27.054Z,100977.39
2018-12-04T13:22:33.887Z,100980.05
2018-12-04T13:24:40.509Z,100980.98
2018-12-04T13:26:46.951Z,100988.52
2018-12-04T13:28:53.775Z,100986.39
2018-12-04T13:31:00.003Z,100994.27
2018-12-04T13:33:29.455Z,100999.52
2018-12-04T13:35:58.663Z,101012.63
2018-12-04T13:38:04.853Z,101017.95
2018-12-04T13:40:11.179Z,101023.66
2018-12-04T13:42:17.410Z,101023.23
2018-12-04T13:44:23.624Z,101024.10
2018-12-04T13:46:30.083Z,101025.00
2018-12-04T13:48:36.386Z,101021.93
2018-12-04T13:50:42.604Z,101025.42
2018-12-04T13:52:48.911Z,101027.17
2018-12-04T13:54:55.188Z,101032.31
2018-12-04T13:57:01.391Z,101031.00
2018-12-04T13:59:07.703Z,101032.31
2018-12-04T14:01:36.291Z,101031.41
2018-12-04T14:04:05.528Z,101029.20
2018-12-04T14:06:33.822Z,101036.70
2018-12-04T14:09:05.713Z,101041.57
2018-12-04T14:11:12.015Z,101044.65
2018-12-04T14:13:18.170Z,101050.31
2018-12-04T14:15:24.337Z,101045.89
2018-12-04T14:17:30.633Z,101045.44
2018-12-04T14:19:36.865Z,101057.22
2018-12-04T14:21:43.190Z,101060.70
2018-12-04T14:24:11.430Z,101057.63
2018-12-04T14:26:39.574Z,101050.23
2018-12-04T14:31:03.578Z,101057.25
2018-12-04T14:33:09.887Z,101060.80
2018-12-04T14:35:16.194Z,101070.03
2018-12-04T14:37:22.641Z,101078.39
2018-12-04T14:39:30.280Z,101080.63
2018-12-04T14:41:36.955Z,101085.09
2018-12-04T14:43:43.211Z,101089.09
2018-12-04T14:45:49.568Z,101093.03
2018-12-04T14:47:56.456Z,101098.28
2018-12-04T14:50:02.622Z,101102.21
2018-12-04T14:52:08.858Z,101104.32
2018-12-04T14:54:15.788Z,101110.88
2018-12-04T14:56:21.885Z,101116.58
2018-12-04T14:58:28.092Z,101119.20
2018-12-04T15:00:35.473Z,101120.13
2018-12-04T15:02:41.737Z,101119.27
2018-12-04T15:04:55.473Z,101121.45
2018-12-04T15:07:09.351Z,101122.27
2018-12-04T15:09:15.708Z,101134.05
2018-12-04T15:11:21.944Z,101138.40
2018-12-04T15:13:28.400Z,101135.81
2018-12-04T15:15:34.731Z,101143.27
2018-12-04T15:17:40.928Z,101142.50
2018-12-04T15:19:47.554Z,101147.41
2018-12-04T15:21:53.800Z,101147.92
2018-12-04T15:24:22.876Z,101150.19
2018-12-04T15:26:52.107Z,101150.70
2018-12-04T15:28:58.791Z,101159.09
2018-12-04T15:31:05.079Z,101158.67
2018-12-04T15:33:11.323Z,101153.46
2018-12-04T15:35:17.599Z,101164.41
2018-12-04T15:37:24.855Z,101166.19
2018-12-04T15:39:32.141Z,101171.02
2018-12-04T15:41:38.396Z,101173.65
2018-12-04T15:43:45.551Z,101177.17
2018-12-04T15:45:51.828Z,101180.72
2018-12-04T15:47:58.264Z,101176.02
2018-12-04T15:50:05.462Z,101177.00
2018-12-04T15:52:11.805Z,101180.64
2018-12-04T15:54:18.404Z,101179.81
2018-12-04T15:56:24.689Z,101185.05
2018-12-04T15:58:30.824Z,101182.95
2018-12-04T16:00:37.015Z,101190.42
2018-12-04T16:02:43.166Z,101194.03
2018-12-04T16:04:49.441Z,101194.51
2018-12-04T16:06:56.039Z,101198.05
2018-12-04T16:09:02.237Z,101199.84
2018-12-04T16:11:08.427Z,101195.94
2018-12-04T16:13:50.754Z,101193.34
2018-12-04T16:16:19.217Z,101201.75
2018-12-04T16:18:25.535Z,101201.84
2018-12-04T16:20:31.912Z,101211.06
2018-12-04T16:22:38.218Z,101217.73
2018-12-04T16:24:44.378Z,101216.01
2018-12-04T16:26:50.639Z,101213.03
2018-12-04T16:28:57.401Z,101222.25
2018-12-04T16:31:03.935Z,101223.30
2018-12-04T16:33:10.157Z,101232.09
2018-12-04T16:35:16.375Z,101234.38
2018-12-04T16:37:22.703Z,101235.72
2018-12-04T16:39:29.039Z,101232.41
2018-12-04T16:41:35.603Z,101235.16
2018-12-04T16:43:41.701Z,101242.28
2018-12-04T16:45:48.059Z,101241.18
2018-12-04T16:47:54.432Z,101239.11
2018-12-04T16:50:00.784Z,101243.06
2018-12-04T16:52:07.161Z,101251.36
2018-12-04T16:54:13.485Z,101257.53
2018-12-04T16:56:19.734Z,101260.17
2018-12-04T16:58:25.881Z,101257.63
2018-12-04T17:00:32.063Z,101261.60
2018-12-04T17:02:38.926Z,101263.41
2018-12-04T17:04:45.080Z,101262.64
2018-12-04T17:06:51.258Z,101269.67
2018-12-04T17:08:57.403Z,101271.03
2018-12-04T17:11:03.626Z,101273.67
2018-12-04T17:13:09.753Z,101276.39
2018-12-04T17:15:15.987Z,101280.78
2018-12-04T17:17:22.303Z,101277.81
2018-12-04T17:19:28.958Z,101287.06
2018-12-04T17:21:35.230Z,101291.45
2018-12-04T17:23:41.545Z,101295.91
2018-12-04T17:25:47.615Z,101291.19
2018-12-04T17:27:53.953Z,101302.16
2018-12-04T17:30:00.373Z,101297.84
2018-12-04T17:32:06.618Z,101297.41
2018-12-04T17:34:12.836Z,101295.64
2018-12-04T17:36:19.357Z,101305.22
2018-12-04T17:38:25.927Z,101307.41
2018-12-04T17:41:00.735Z,101313.97
2018-12-04T17:43:29.215Z,101317.10
2018-12-04T17:45:35.623Z,101312.24
2018-12-04T17:47:42.056Z,101322.17
2018-12-04T17:49:48.229Z,101315.62
2018-12-04T17:51:54.457Z,101316.02
2018-12-04T17:54:00.700Z,101313.78
2018-12-04T17:56:09.139Z,101308.55
2018-12-04T17:58:15.271Z,101311.61
2018-12-04T18:00:21.665Z,101306.34
2018-12-04T18:02:30.064Z,101305.82
2018-12-04T18:04:37.324Z,101311.04
2018-12-04T18:06:45.466Z,101311.41
2018-12-04T18:08:51.939Z,101309.64
2018-12-04T18:11:00.260Z,101306.53
2018-12-04T18:13:06.606Z,101305.20
2018-12-04T18:15:16.521Z,101299.54
2018-12-04T18:17:22.902Z,101304.83
2018-12-04T18:19:29.580Z,101306.58
2018-12-04T18:21:35.836Z,101309.66
2018-12-04T18:24:04.067Z,101318.47
2018-12-04T18:26:32.383Z,101325.66
2018-12-04T18:28:38.760Z,101345.09
2018-12-04T18:30:45.184Z,101347.48
2018-12-04T18:32:51.491Z,101350.70
2018-12-04T18:34:57.706Z,101349.56
2018-12-04T18:37:04.018Z,101356.68
2018-12-04T18:39:10.364Z,101355.88
2018-12-04T18:41:16.773Z,101362.86
2018-12-04T18:43:23.169Z,101363.73
2018-12-04T18:45:29.543Z,101357.62
2018-12-04T18:47:36.067Z,101365.02
2018-12-04T18:49:42.566Z,101356.75
2018-12-04T18:51:50.487Z,101364.16
2018-12-04T18:53:56.829Z,101368.59
2018-12-04T18:56:03.062Z,101367.81
2018-12-04T18:58:09.489Z,101370.98
2018-12-04T19:00:16.552Z,101368.87
2018-12-04T19:02:22.892Z,101369.77
2018-12-04T19:04:30.601Z,101368.88
2018-12-04T19:06:37.393Z,101370.19
2018-12-04T19:08:48.409Z,101374.12
2018-12-04T19:10:56.314Z,101359.33
2018-12-04T19:13:02.650Z,101350.73
2018-12-04T19:15:10.145Z,101363.38
2018-12-04T19:17:16.460Z,101367.80
2018-12-04T19:19:22.723Z,101367.80
2018-12-04T19:21:29.224Z,101363.88
2018-12-04T19:23:43.933Z,101359.95
2018-12-04T19:26:12.920Z,101359.08
2018-12-04T19:28:19.247Z,101359.13
2018-12-04T19:30:25.589Z,101362.73
2018-12-04T19:32:31.886Z,101364.61
2018-12-04T19:34:38.853Z,101370.87
2018-12-04T19:36:45.360Z,101372.30
2018-12-04T19:38:51.677Z,101382.37
2018-12-04T19:40:57.888Z,101374.58
2018-12-04T19:43:04.266Z,101378.94
2018-12-04T19:45:10.580Z,101376.77
2018-12-04T19:47:16.868Z,101380.23
2018-12-04T19:49:46.080Z,101382.41
2018-12-04T19:52:15.140Z,101390.69
2018-12-04T19:54:21.716Z,101375.07
2018-12-04T19:56:27.977Z,101372.91
2018-12-04T19:58:34.319Z,101385.95
2018-12-04T20:00:41.071Z,101391.17
2018-12-04T20:02:47.423Z,101387.69
2018-12-04T20:04:59.269Z,101385.08
2018-12-04T20:07:05.775Z,101386.83
2018-12-04T20:09:11.975Z,101383.39
2018-12-04T20:11:18.310Z,101383.00
2018-12-04T20:13:24.797Z,101392.58
2018-12-04T20:15:31.534Z,101389.58
2018-12-04T20:17:37.735Z,101390.06
2018-12-04T20:19:43.935Z,101396.20
2018-12-04T20:21:50.241Z,101402.80
2018-12-04T20:23:56.615Z,101407.63
2018-12-04T20:26:02.862Z,101405.97
2018-12-04T20:28:09.109Z,101416.47
2018-12-04T20:30:15.479Z,101416.54
2018-12-04T20:32:21.897Z,101423.52
2018-12-04T20:34:28.283Z,101418.77
2018-12-04T20:36:34.703Z,101415.30
2018-12-04T20:38:41.286Z,101424.42
2018-12-04T20:40:47.589Z,101426.13
2018-12-04T20:42:54.071Z,101427.83
2018-12-04T20:45:00.345Z,101432.58
2018-12-04T20:47:06.522Z,101438.66
2018-12-04T20:49:13.367Z,101437.35
2018-12-04T20:51:19.709Z,101439.06
2018-12-04T20:53:25.899Z,101432.11
2018-12-04T20:55:32.096Z,101440.83
2018-12-04T20:57:38.289Z,101438.66
2018-12-04T20:59:44.606Z,101429.56
2018-12-04T21:01:51.040Z,101432.61
2018-12-04T21:03:57.273Z,101430.47
2018-12-04T21:06:03.629Z,101421.34
2018-12-04T21:08:11.047Z,101415.67
2018-12-04T21:10:17.267Z,101422.15
2018-12-04T21:12:23.523Z,101413.86
2018-12-04T21:14:29.797Z,101424.72
2018-12-04T21:16:36.057Z,101431.20
2018-12-04T21:18:42.311Z,101424.25
2018-12-04T21:20:48.668Z,101430.73
2018-12-04T21:22:55.082Z,101426.82
2018-12-04T21:25:02.030Z,101436.38
2018-12-04T21:27:12.425Z,101441.13
2018-12-04T21:29:23.818Z,101441.13
2018-12-04T21:31:35.342Z,101443.77
2018-12-04T21:36:57.829Z,101447.31
2018-12-04T21:39:09.573Z,101454.73
2018-12-04T21:41:21.182Z,101454.30
2018-12-04T21:43:33.056Z,101453.02
2018-12-04T21:45:44.269Z,101447.81
2018-12-04T21:50:17.256Z,101440.39
2018-12-04T21:52:23.466Z,101439.53
2018-12-04T21:54:29.678Z,101439.53
2018-12-04T21:56:35.790Z,101443.84
2018-12-04T21:58:42.241Z,101450.75
2018-12-04T22:00:49.216Z,101443.80
2018-12-04T22:02:55.496Z,101443.33
2018-12-04T22:05:01.656Z,101441.16
2018-12-04T22:07:08.890Z,101439.86
2018-12-04T22:09:15.135Z,101450.31
2018-12-04T22:11:21.240Z,101452.52
2018-12-04T22:13:27.432Z,101456.91
2018-12-04T22:15:33.785Z,101446.04
2018-12-04T22:17:41.202Z,101444.27
2018-12-04T22:19:47.511Z,101450.35
2018-12-04T22:21:54.218Z,101457.30
2018-12-04T22:24:00.342Z,101450.35
2018-12-04T22:26:07.957Z,101456.00
2018-12-04T22:28:14.123Z,101463.82
2018-12-04T22:30:21.195Z,101465.99
2018-12-04T22:32:27.312Z,101470.34
2018-12-04T22:34:33.609Z,101462.98
2018-12-04T22:36:40.014Z,101462.55
2018-12-04T22:38:46.266Z,101459.08
2018-12-04T22:40:52.375Z,101462.55
2018-12-04T22:42:58.503Z,101465.99
2018-12-04T22:45:10.370Z,101460.78
2018-12-04T22:47:16.503Z,101459.94
2018-12-04T22:49:22.661Z,101465.16
2018-12-04T22:51:28.818Z,101475.58
2018-12-04T22:53:36.790Z,101462.55
2018-12-04T22:55:43.218Z,101467.33
2018-12-04T22:57:49.319Z,101464.72
2018-12-04T22:59:55.410Z,101464.75
2018-12-04T23:02:01.832Z,101458.23
2018-12-04T23:06:28.213Z,101466.48
2018-12-04T23:08:35.093Z,101459.50
2018-12-04T23:10:41.489Z,101464.72
2018-12-04T23:12:47.749Z,101459.07
2018-12-04T23:14:54.079Z,101460.37
2018-12-04T23:17:00.210Z,101462.55
2018-12-04T23:19:06.750Z,101462.11
2018-12-04T23:21:13.041Z,101454.73
2018-12-04T23:23:20.227Z,101450.85
2018-12-04T23:25:26.568Z,101449.98
2018-12-04T23:27:34.401Z,101446.08
2018-12-04T23:29:41.277Z,101440.86
2018-12-04T23:31:47.517Z,101439.56
2018-12-04T23:33:55.532Z,101432.58
2018-12-04T23:36:02.502Z,101424.33
2018-12-04T23:38:08.561Z,101436.05
2018-12-04T23:40:15.505Z,101430.41
2018-12-04T23:42:21.796Z,101423.45
2018-12-04T23:44:27.947Z,101433.84
2018-12-04T23:46:34.078Z,101441.23
2018-12-04T23:48:40.798Z,101452.09
2018-12-04T23:50:47.142Z,101448.61
2018-12-04T23:52:53.332Z,101443.40
2018-12-04T23:54:59.591Z,101436.89
2018-12-04T23:57:05.804Z,101441.20
2018-12-04T23:59:11.984Z,101433.37
